Etusivu
METAR-TAF:

METAR-TAF

Lentoasemat :

Aransas County Airport

Rockport, Texas, Yhdysvallat

Leveyspiiri: 28-05-01N, Pituuspiiri: 097-02-47W, korkeus merenpinnasta: 7 m

Tämänhetkinen sää

Tämä raportti tehtiin 30 minuuttia sitten, kello 16.53 UTC
Tuuli 12 kn etelästä/kaakosta
Lämpötila 29°C
Kosteus 66%
Ilmanpaine 1018 hPa
Näkyvyys: 11.3 km
selkeää

METAR: KRKP 261653Z AUTO 15012KT 7SM CLR 29/22 A3005 RMK AO2 SLP175 T02890217 $

Aika: 12:23 (17:23 UTC)


TAF: puuttuu

Säähavainnot ja -ennusteet yli 4000 lentoasemalta (METAR- ja TAF-raportit).

Käytössä olevat sääasemat on merkitty karttaan keltaisilla ja punaisilla pisteillä.

Aseta hiiri pisteen päälle nähdäksesi sääaseman nimen.

Klikkaa sitten nähdäksesi säähavainnot ja -ennusteet.

Kartan vaihtaminen: klikkaa mustalla rastilla varustettuja vihreitä pisteitä, niin voit zoomata sisään; viivalla varustettua vihreää pistettä, niin voit zoomata ulos tai vihreitä nuolia, niin pääset viereisille kartoille.


METAR-TAF: